createdAt,value
2019-03-29T00:04:00.988Z,10.24
2019-03-29T00:09:06.894Z,10.19
2019-03-29T00:14:09.988Z,10.19
2019-03-29T00:19:13.463Z,10.18
2019-03-29T00:24:17.366Z,10.15
2019-03-29T00:29:21.174Z,10.14
2019-03-29T00:34:24.811Z,10.16
2019-03-29T00:39:28.469Z,10.13
2019-03-29T00:44:31.454Z,10.14
2019-03-29T00:49:34.801Z,10.14
2019-03-29T00:54:38.641Z,10.15
2019-03-29T00:59:41.636Z,10.15
2019-03-29T01:04:44.739Z,10.16
2019-03-29T01:09:48.594Z,10.17
2019-03-29T01:14:51.547Z,10.16
2019-03-29T01:19:55.936Z,10.16
2019-03-29T01:25:00.436Z,10.02
2019-03-29T01:30:04.795Z,9.99
2019-03-29T01:35:09.341Z,10.00
2019-03-29T01:40:13.405Z,9.93
2019-03-29T01:45:16.540Z,9.94
2019-03-29T01:50:20.162Z,9.85
2019-03-29T01:55:23.326Z,9.88
2019-03-29T02:00:31.931Z,9.86
2019-03-29T02:05:35.268Z,9.91
2019-03-29T02:10:38.867Z,9.89
2019-03-29T02:15:42.475Z,9.93
2019-03-29T02:20:45.886Z,9.98
2019-03-29T02:25:49.422Z,9.99
2019-03-29T02:30:52.523Z,9.98
2019-03-29T02:35:55.526Z,10.02
2019-03-29T02:40:59.159Z,10.05
2019-03-29T02:46:02.851Z,10.07
2019-03-29T02:51:05.835Z,10.07
2019-03-29T02:56:09.292Z,10.09
2019-03-29T03:01:12.544Z,10.10
2019-03-29T03:06:15.639Z,10.08
2019-03-29T03:11:18.752Z,10.10
2019-03-29T03:16:22.933Z,10.11
2019-03-29T03:21:26.637Z,10.09
2019-03-29T03:26:29.712Z,10.07
2019-03-29T03:31:33.877Z,10.07
2019-03-29T03:36:36.896Z,10.08
2019-03-29T03:41:39.889Z,10.11
2019-03-29T03:46:42.891Z,10.11
2019-03-29T03:51:46.334Z,10.12
2019-03-29T03:56:52.430Z,10.12
2019-03-29T04:01:55.434Z,10.04
2019-03-29T04:06:58.527Z,9.92
2019-03-29T04:12:01.516Z,9.86
2019-03-29T04:17:04.477Z,9.79
2019-03-29T04:22:07.826Z,9.76
2019-03-29T04:27:11.916Z,9.76
2019-03-29T04:32:15.571Z,9.76
2019-03-29T04:37:18.624Z,9.75
2019-03-29T04:42:21.669Z,9.80
2019-03-29T04:47:25.289Z,9.88
2019-03-29T04:52:28.260Z,9.90
2019-03-29T04:57:31.915Z,9.93
2019-03-29T05:02:35.000Z,9.90
2019-03-29T05:07:38.861Z,9.95
2019-03-29T05:12:42.907Z,9.97
2019-03-29T05:17:45.902Z,9.99
2019-03-29T05:22:49.487Z,9.95
2019-03-29T05:27:52.508Z,9.91
2019-03-29T05:32:56.522Z,9.89
2019-03-29T05:37:59.605Z,9.90
2019-03-29T05:43:02.819Z,9.88
2019-03-29T05:48:06.150Z,9.95
2019-03-29T05:53:10.566Z,9.97
2019-03-29T05:58:13.636Z,10.05
2019-03-29T06:03:17.587Z,10.07
2019-03-29T06:08:20.581Z,10.11
2019-03-29T06:13:24.540Z,10.13
2019-03-29T06:18:28.303Z,10.17
2019-03-29T06:23:31.288Z,10.20
2019-03-29T06:28:34.283Z,10.23
2019-03-29T06:33:37.362Z,10.30
2019-03-29T06:38:43.480Z,10.32
2019-03-29T06:43:46.813Z,10.40
2019-03-29T06:48:50.806Z,10.42
2019-03-29T06:53:54.347Z,10.48
2019-03-29T06:58:58.392Z,10.50
2019-03-29T07:04:02.279Z,10.57
2019-03-29T07:09:07.242Z,10.63
2019-03-29T07:14:11.029Z,10.70
2019-03-29T07:19:14.022Z,10.68
2019-03-29T07:24:17.438Z,10.70
2019-03-29T07:29:21.487Z,10.80
2019-03-29T07:34:24.807Z,10.80
2019-03-29T07:39:28.206Z,10.87
2019-03-29T07:44:31.218Z,10.90
2019-03-29T07:49:34.215Z,10.80
2019-03-29T07:54:37.926Z,10.85
2019-03-29T07:59:40.980Z,10.89
2019-03-29T08:04:46.525Z,10.98
2019-03-29T08:09:50.324Z,11.11
2019-03-29T08:14:53.644Z,11.19
2019-03-29T08:20:35.622Z,11.41
2019-03-29T08:25:03.231Z,11.37
2019-03-29T08:30:07.414Z,11.27
2019-03-29T08:35:10.588Z,11.33
2019-03-29T08:40:14.190Z,11.42
2019-03-29T08:45:17.209Z,11.46
2019-03-29T08:50:20.302Z,11.44
2019-03-29T08:55:23.328Z,11.53
2019-03-29T09:00:33.239Z,11.58
2019-03-29T09:05:39.183Z,11.61
2019-03-29T09:10:42.429Z,11.64
2019-03-29T09:15:45.647Z,11.63
2019-03-29T09:20:48.738Z,11.69
2019-03-29T09:25:53.683Z,11.70
2019-03-29T09:30:57.018Z,11.73
2019-03-29T09:36:00.143Z,11.62
2019-03-29T09:41:03.245Z,11.48
2019-03-29T09:46:07.301Z,11.49
2019-03-29T09:51:10.484Z,11.63
2019-03-29T09:56:14.649Z,11.68
2019-03-29T10:01:20.633Z,11.80
2019-03-29T10:06:22.903Z,11.83
2019-03-29T10:11:26.284Z,11.91
2019-03-29T10:16:30.187Z,11.98
2019-03-29T10:21:34.244Z,11.98
2019-03-29T10:26:38.147Z,12.10
2019-03-29T10:31:41.161Z,12.17
2019-03-29T10:36:44.238Z,12.05
2019-03-29T10:41:47.981Z,12.08
2019-03-29T10:46:51.785Z,12.22
2019-03-29T10:51:55.198Z,12.25
2019-03-29T10:56:58.225Z,12.24
2019-03-29T11:02:01.821Z,12.39
2019-03-29T11:07:04.941Z,12.61
2019-03-29T11:12:08.339Z,12.57
2019-03-29T11:17:12.613Z,12.52
2019-03-29T11:22:16.323Z,12.53
2019-03-29T11:27:22.463Z,12.61
2019-03-29T11:32:25.858Z,12.66
2019-03-29T11:37:30.637Z,12.81
2019-03-29T11:42:33.704Z,12.85
2019-03-29T11:47:36.785Z,12.75
2019-03-29T11:52:40.120Z,12.88
2019-03-29T11:57:44.127Z,12.91
2019-03-29T12:02:47.383Z,13.03
2019-03-29T12:07:50.415Z,13.11
2019-03-29T12:12:53.509Z,13.05
2019-03-29T12:17:56.635Z,12.95
2019-03-29T12:22:59.831Z,12.81
2019-03-29T12:28:03.895Z,12.85
2019-03-29T12:33:07.065Z,12.85
2019-03-29T12:38:10.300Z,12.93
2019-03-29T12:43:13.844Z,13.04
2019-03-29T12:48:17.738Z,13.03
2019-03-29T12:53:21.615Z,12.97
2019-03-29T12:58:25.281Z,13.02
2019-03-29T13:03:29.015Z,13.08
2019-03-29T13:08:32.772Z,12.92
2019-03-29T13:13:37.053Z,12.97
2019-03-29T13:18:41.173Z,12.97
2019-03-29T13:23:44.491Z,12.91
2019-03-29T13:28:48.200Z,12.91
2019-03-29T13:33:51.814Z,13.02
2019-03-29T13:38:55.379Z,13.15
2019-03-29T13:43:58.541Z,13.07
2019-03-29T13:49:01.647Z,12.98
2019-03-29T13:54:04.853Z,13.06
2019-03-29T13:59:07.843Z,13.09
2019-03-29T14:04:11.584Z,13.09
2019-03-29T14:09:15.610Z,13.11
2019-03-29T14:14:18.945Z,13.08
2019-03-29T14:19:21.994Z,12.98
2019-03-29T14:24:25.658Z,13.03
2019-03-29T14:29:29.257Z,13.04
2019-03-29T14:34:33.349Z,13.04
2019-03-29T14:39:37.134Z,13.12
2019-03-29T14:44:51.808Z,13.14
2019-03-29T14:49:45.973Z,13.07
2019-03-29T14:54:49.084Z,13.02
2019-03-29T14:59:52.335Z,13.07
2019-03-29T15:04:55.516Z,13.09
2019-03-29T15:09:59.995Z,13.14
2019-03-29T15:15:06.677Z,13.21
2019-03-29T15:20:10.645Z,13.21
2019-03-29T15:25:13.982Z,13.21
2019-03-29T15:30:17.294Z,13.25
2019-03-29T15:35:20.993Z,13.16
2019-03-29T15:40:24.346Z,13.07
2019-03-29T15:45:27.387Z,13.10
2019-03-29T15:50:30.431Z,13.10
2019-03-29T15:55:33.720Z,13.11
2019-03-29T16:00:37.702Z,13.01
2019-03-29T16:05:40.714Z,12.92
2019-03-29T16:10:44.383Z,12.87
2019-03-29T16:15:47.689Z,12.83
2019-03-29T16:20:51.118Z,12.81
2019-03-29T16:25:54.245Z,12.84
2019-03-29T16:30:58.095Z,12.84
2019-03-29T16:36:01.526Z,12.83
2019-03-29T16:41:05.284Z,12.82
2019-03-29T16:46:09.600Z,12.77
2019-03-29T16:51:13.033Z,12.75
2019-03-29T16:56:16.620Z,12.71
2019-03-29T17:01:20.384Z,12.65
2019-03-29T17:06:24.020Z,12.60
2019-03-29T17:11:27.380Z,12.55
2019-03-29T17:16:30.907Z,12.56
2019-03-29T17:21:34.142Z,12.56
2019-03-29T17:26:37.344Z,12.53
2019-03-29T17:31:40.941Z,12.51
2019-03-29T17:36:44.621Z,12.50
2019-03-29T17:41:47.905Z,12.48
2019-03-29T17:46:52.877Z,12.46
2019-03-29T17:51:56.566Z,12.46
2019-03-29T17:56:59.951Z,12.38
2019-03-29T18:02:09.128Z,12.34
2019-03-29T18:07:08.203Z,12.35
2019-03-29T18:12:11.585Z,12.34
2019-03-29T18:17:15.454Z,12.33
2019-03-29T18:22:18.758Z,12.29
2019-03-29T18:27:22.039Z,12.28
2019-03-29T18:32:25.336Z,12.24
2019-03-29T18:37:29.770Z,12.20
2019-03-29T18:42:33.644Z,12.15
2019-03-29T18:47:37.178Z,12.08
2019-03-29T18:52:42.766Z,12.04
2019-03-29T18:57:45.121Z,11.97
2019-03-29T19:02:48.719Z,11.90
2019-03-29T19:07:52.259Z,11.84
2019-03-29T19:12:55.365Z,11.82
2019-03-29T19:17:58.391Z,11.76
2019-03-29T19:23:02.074Z,11.69
2019-03-29T19:28:05.129Z,11.66
2019-03-29T19:33:08.407Z,11.60
2019-03-29T19:38:11.392Z,11.56
2019-03-29T19:43:14.719Z,11.52
2019-03-29T19:48:17.738Z,11.48
2019-03-29T19:53:21.605Z,11.44
2019-03-29T19:58:24.876Z,11.40
2019-03-29T20:03:28.210Z,11.38
2019-03-29T20:08:31.980Z,11.38
2019-03-29T20:13:35.602Z,11.34
2019-03-29T20:18:38.568Z,11.33
2019-03-29T20:23:41.699Z,11.31
2019-03-29T20:28:44.748Z,11.27
2019-03-29T20:33:48.020Z,11.19
2019-03-29T20:38:52.058Z,11.15
2019-03-29T20:43:55.960Z,11.08
2019-03-29T20:48:58.940Z,11.02
2019-03-29T20:54:02.346Z,10.95
2019-03-29T20:59:05.707Z,10.92
2019-03-29T21:04:09.000Z,10.88
2019-03-29T21:09:12.936Z,10.84
2019-03-29T21:14:15.971Z,10.81
2019-03-29T21:19:20.215Z,10.79
2019-03-29T21:24:23.695Z,10.76
2019-03-29T21:29:27.315Z,10.68
2019-03-29T21:34:30.402Z,10.58
2019-03-29T21:39:34.024Z,10.53
2019-03-29T21:44:37.069Z,10.50
2019-03-29T21:49:40.989Z,10.48
2019-03-29T21:54:44.490Z,10.46
2019-03-29T21:59:47.992Z,10.42
2019-03-29T22:04:51.596Z,10.38
2019-03-29T22:09:55.738Z,10.30
2019-03-29T22:14:58.912Z,10.25
2019-03-29T22:20:04.313Z,10.24
2019-03-29T22:25:08.690Z,10.23
2019-03-29T22:30:15.730Z,10.20
2019-03-29T22:35:19.365Z,10.14
2019-03-29T22:40:25.385Z,10.10
2019-03-29T22:45:29.579Z,10.05
2019-03-29T22:50:33.295Z,9.95
2019-03-29T22:55:36.799Z,9.84
2019-03-29T23:00:46.959Z,9.81
2019-03-29T23:05:52.021Z,9.78
2019-03-29T23:10:55.432Z,9.71
2019-03-29T23:16:00.524Z,9.68
2019-03-29T23:21:04.164Z,9.65
2019-03-29T23:26:07.897Z,9.61
2019-03-29T23:31:11.008Z,9.58
2019-03-29T23:36:13.965Z,9.51
2019-03-29T23:41:17.408Z,9.40
2019-03-29T23:46:20.485Z,9.30
2019-03-29T23:51:24.370Z,9.26
2019-03-29T23:56:28.202Z,9.15
